Bearden, Oklahoma
Current Conditions -  °F | °C
As of 7:15 PM on Saturday 25 Oct 2014 (Local Time) from KOKM Reporting Station
Clear Clear  
Wind Chill: 75°   Ceiling: Unl
Heat Index: 75°   Visibility: 10mi
Dew Point: 65°   Wind: 3mph
Humidity: 71%   Direction: 150°SSE
Pressure: 30"   Gusts: NA
Location:  35.469°N, 96.2923°W
Report Text: KOKM 260015Z AUTO 15003KT 10SM CLR 24/19 A3000 RMK AO2 T02410185
Loading
Personal Weather Stations






























Interactive Weather Map
Tropical Storm Tracking
New forecast layout! Learn more

10-Day Weather Forecast

Advertisements
Track Severe Weather on mobile